気象予報士の航空気象 羽田空港で火災!

*All archives   *Admin

2010.03.28 (Sun)

羽田空港で火災!

 火事です。


羽田空港の新ターミナルで火事です。


夜のニュースで知りました。


羽田空港新ターミナル駅火災



びっくりです。


 幸い犠牲者はいなかったようです。よかった。


ということで、METARはどうなっていたのか、気になるところです。


火災発生は午前11時ごろ。


確認してみると、

RJTT 270100Z 12005KT 9999 FEW020 BKN050 06/M02 Q1024 RMK 1CU020 6SC050 A3026

RJTT 270130Z 09004KT 050V120 9999 FEW020 SCT060 07/M02 Q1024 RMK 1CU020 4SC060 A3026

RJTT 270130Z 09004KT 050V120 9999 FEW020 SCT060 07/M02 Q1024 RMK 1CU020 4SC060 A3026

RJTT 270200Z 12004KT 080V150 9999 FEW020 BKN060 08/M02 Q1024 RMK 1CU020 5SC060 A3025

RJTT 270230Z 10006KT 070V130 9999 FEW020 BKN/// 08/M02 Q1024 RMK 1CU020 A3024

RJTT 270300Z 11006KT 9999 FEW020 BKN/// 08/M02 Q1024 RMK 1CU020 A3024


残念です。


至って、普通。


RMKくらいなんかあるかなっと思ったんですけど、残念です。




ブログランキングに参加しています。
にほんブログ村 環境ブログ 天気・気象学へ
にほんブログ村
応援クリックをおねがします。


以下、アフィリエイトサイトです。




スポンサーサイト
01:08  |  航空機  |  TB(0)  |  CM(0)  |  EDIT  |  Top↑

コメントを投稿する


 管理者だけに表示  (非公開コメント投稿可能)

▲PageTop

この記事のトラックバックURL

→http://weathereucalyptus.blog115.fc2.com/tb.php/437-ba4766b2
この記事にトラックバックする(FC2ブログユーザー)

この記事へのトラックバック

▲PageTop

 | BLOGTOP |